Time;durP1;ratioP1;P1;durP2;ratioP2;P2;SDS_P1;SDS_P2;PMS_P1;PMS_P2;Temp;Humidity;BMP_temperature;BMP_pressure;BME280_temperature;BME280_humidity;BME280_pressure;Samples;Min_cycle;Max_cycle;Signal;HPM_P1;HPM_P2
2022/11/11 00:01:53;;;;;;;2.60;1.83;;;5.80;99.90;;;;;;20991478;28;20483;-77
2022/11/11 00:12:12;;;;;;;4.70;1.30;;;5.60;99.90;;;;;;20990858;28;20058;-77
2022/11/11 00:33:09;;;;;;;4.55;2.75;;;5.50;99.90;;;;;;20990963;28;20044;-77
2022/11/11 00:43:29;;;;;;;4.55;3.17;;;5.60;99.90;;;;;;20990174;28;20491;-77
2022/11/11 00:53:48;;;;;;;8.02;3.63;;;5.70;99.90;;;;;;20988671;28;20310;-77
2022/11/11 01:04:07;;;;;;;5.85;2.92;;;5.30;99.90;;;;;;20989652;28;20044;-77
2022/11/11 01:14:26;;;;;;;7.32;3.55;;;5.20;99.90;;;;;;20987199;28;20049;-77
2022/11/11 01:24:46;;;;;;;10.20;4.03;;;5.30;99.90;;;;;;21016123;22;20040;-78
2022/11/11 01:35:06;;;;;;;4.85;3.03;;;5.30;99.90;;;;;;20988147;28;20033;-78
2022/11/11 01:45:44;;;;;;;8.32;3.20;;;5.20;99.90;;;;;;20934460;28;20144;-78
2022/11/11 01:56:04;;;;;;;8.63;3.67;;;4.90;99.90;;;;;;20933810;28;20068;-78
2022/11/11 02:06:25;;;;;;;5.05;3.30;;;4.80;99.90;;;;;;20932853;28;20041;-78
2022/11/11 02:16:44;;;;;;;5.63;3.33;;;4.80;99.90;;;;;;20932548;28;20032;-78
2022/11/11 02:27:07;;;;;;;6.60;2.95;;;4.80;99.90;;;;;;20915968;28;20059;-78
2022/11/11 02:37:27;;;;;;;5.15;3.58;;;4.60;99.90;;;;;;20929161;28;20044;-78
2022/11/11 02:47:46;;;;;;;5.63;2.80;;;4.50;99.90;;;;;;20927468;28;20041;-78
2022/11/11 02:58:06;;;;;;;5.72;3.50;;;4.40;99.90;;;;;;20931510;28;20072;-78
2022/11/11 03:08:25;;;;;;;57.83;4.50;;;4.20;99.90;;;;;;20928352;28;20049;-77
2022/11/11 03:18:45;;;;;;;5.15;3.47;;;4.10;99.90;;;;;;20927186;28;20411;-77
2022/11/11 03:29:04;;;;;;;5.68;3.13;;;3.90;99.90;;;;;;20928654;28;20045;-78
2022/11/11 03:39:23;;;;;;;3.38;2.30;;;4.10;99.90;;;;;;20926396;28;20051;-77
2022/11/11 03:49:44;;;;;;;4.25;2.60;;;3.90;99.90;;;;;;20926637;28;20068;-78
2022/11/11 04:00:04;;;;;;;6.77;3.33;;;4.20;99.90;;;;;;20926350;28;20044;-78
2022/11/11 04:10:23;;;;;;;5.90;3.33;;;4.40;99.90;;;;;;20911068;28;20041;-78
2022/11/11 04:31:21;;;;;;;16.55;5.70;;;5.00;99.90;;;;;;20919507;28;20048;-77
2022/11/11 04:41:40;;;;;;;16.77;4.88;;;5.40;99.90;;;;;;20909842;28;20036;-79
2022/11/11 05:34:31;;;;;;;14.93;6.10;;;5.40;99.90;;;;;;20977527;28;20055;-79
2022/11/11 05:44:51;;;;;;;19.05;6.80;;;5.60;99.90;;;;;;20975206;28;20292;-78
2022/11/11 05:55:10;;;;;;;19.05;5.80;;;5.80;99.90;;;;;;20972517;28;20482;-78
2022/11/11 06:05:29;;;;;;;29.45;8.00;;;5.90;99.90;;;;;;20971773;28;20449;-78
2022/11/11 06:15:49;;;;;;;20.38;7.03;;;6.20;99.90;;;;;;20952349;28;20032;-79
2022/11/11 06:26:13;;;;;;;20.27;6.82;;;6.30;99.90;;;;;;21007208;28;20044;-79
2022/11/11 06:36:32;;;;;;;15.00;5.25;;;6.40;99.90;;;;;;21014393;28;20041;-77
2022/11/11 06:46:51;;;;;;;12.20;4.25;;;6.30;99.90;;;;;;21011026;28;20032;-77
2022/11/11 06:57:10;;;;;;;10.85;4.13;;;6.10;99.90;;;;;;21010810;28;20041;-79
2022/11/11 07:07:29;;;;;;;10.38;4.75;;;6.10;99.90;;;;;;21011567;28;20037;-79
2022/11/11 07:17:49;;;;;;;12.93;5.95;;;6.00;99.90;;;;;;21010841;28;20040;-79
2022/11/11 07:28:08;;;;;;;17.08;5.32;;;6.10;99.90;;;;;;20991676;22;20049;-76
2022/11/11 07:38:27;;;;;;;14.75;5.80;;;6.30;99.90;;;;;;20918878;28;20045;-76
2022/11/11 07:48:46;;;;;;;12.00;5.75;;;6.40;99.90;;;;;;20887037;28;20041;-76
2022/11/11 07:59:05;;;;;;;16.35;5.53;;;6.50;99.90;;;;;;20887518;28;20044;-77
2022/11/11 08:09:25;;;;;;;13.48;5.97;;;6.60;99.90;;;;;;20877825;28;20049;-77
2022/11/11 08:19:45;;;;;;;16.67;6.72;;;6.70;99.90;;;;;;20882655;28;20112;-77
2022/11/11 08:30:06;;;;;;;18.52;7.18;;;6.80;99.90;;;;;;20871247;28;20021;-77
2022/11/11 08:40:25;;;;;;;20.33;6.70;;;6.90;99.90;;;;;;20896067;28;20037;-76
2022/11/11 08:50:45;;;;;;;17.15;7.65;;;7.00;99.90;;;;;;20884607;28;20483;-76
2022/11/11 09:01:09;;;;;;;18.55;7.30;;;7.10;99.90;;;;;;20838522;28;20032;-77
2022/11/11 09:11:35;;;;;;;17.00;6.78;;;7.10;99.90;;;;;;20854570;28;20032;-77
2022/11/11 09:21:54;;;;;;;16.67;7.35;;;7.20;99.90;;;;;;20869510;28;20045;-77
2022/11/11 09:32:13;;;;;;;16.08;7.35;;;7.30;99.90;;;;;;20826385;28;20085;-77
2022/11/11 09:42:55;;;;;;;23.67;8.70;;;7.60;99.90;;;;;;20882822;28;20507;-77
2022/11/11 09:53:15;;;;;;;25.23;9.40;;;7.80;99.90;;;;;;20895875;28;20033;-77
2022/11/11 10:03:41;;;;;;;22.25;9.27;;;8.00;99.90;;;;;;20883201;28;20037;-77
2022/11/11 10:14:02;;;;;;;23.90;9.02;;;8.20;99.90;;;;;;20877516;28;20029;-77
2022/11/11 10:24:44;;;;;;;25.30;10.07;;;8.50;99.90;;;;;;20867369;28;20041;-77
2022/11/11 10:35:17;;;;;;;20.27;9.10;;;8.50;99.90;;;;;;20879371;28;20036;-77
2022/11/11 10:45:48;;;;;;;28.05;10.02;;;8.90;99.90;;;;;;20885464;28;20488;-77
2022/11/11 10:56:20;;;;;;;21.33;9.95;;;9.20;99.90;;;;;;20881836;28;20029;-78
2022/11/11 11:06:43;;;;;;;24.17;9.95;;;9.60;99.90;;;;;;20887871;28;20115;-76
2022/11/11 11:17:23;;;;;;;21.08;10.23;;;10.10;99.90;;;;;;20865204;28;20495;-77
2022/11/11 11:27:43;;;;;;;16.27;8.82;;;10.30;99.90;;;;;;20837853;28;20033;-77
2022/11/11 11:38:04;;;;;;;20.80;10.07;;;10.70;99.90;;;;;;20893732;28;20507;-77
2022/11/11 11:48:41;;;;;;;19.93;10.20;;;10.90;99.90;;;;;;20902811;28;20041;-77
2022/11/11 11:59:15;;;;;;;21.52;10.23;;;10.90;99.90;;;;;;20869167;28;20038;-77
2022/11/11 12:09:59;;;;;;;25.17;10.60;;;10.80;99.90;;;;;;20855494;28;20412;-76
2022/11/11 12:20:31;;;;;;;25.73;10.35;;;11.00;99.90;;;;;;20827566;28;20045;-76
2022/11/11 12:31:09;;;;;;;23.55;9.57;;;11.30;99.90;;;;;;20872535;28;20037;-76
2022/11/11 12:41:53;;;;;;;25.73;10.30;;;11.50;99.90;;;;;;20875537;28;20089;-77
2022/11/11 12:52:34;;;;;;;22.23;10.73;;;11.50;99.90;;;;;;20879142;28;20491;-77
2022/11/11 13:03:03;;;;;;;22.17;10.07;;;11.20;99.90;;;;;;20887633;28;20045;-77
2022/11/11 13:13:40;;;;;;;19.30;9.27;;;11.80;99.90;;;;;;20898396;28;20036;-77
2022/11/11 13:24:00;;;;;;;21.92;9.60;;;12.40;99.90;;;;;;20946938;22;20489;-77
2022/11/11 13:34:22;;;;;;;14.80;8.52;;;12.90;99.90;;;;;;21001569;28;20073;-77
2022/11/11 13:44:52;;;;;;;15.45;8.20;;;12.70;99.90;;;;;;20989983;28;20068;-77
2022/11/11 13:55:37;;;;;;;17.88;8.45;;;12.80;99.90;;;;;;21016417;28;20127;-77
2022/11/11 14:06:15;;;;;;;20.75;8.55;;;11.80;99.90;;;;;;20969434;28;20422;-77
2022/11/11 14:16:35;;;;;;;21.88;9.43;;;11.50;99.90;;;;;;21002381;28;20082;-76
2022/11/11 14:26:59;;;;;;;22.90;11.95;;;10.90;99.90;;;;;;21012118;28;20059;-77
2022/11/11 14:37:37;;;;;;;28.08;13.73;;;10.70;99.90;;;;;;21026932;28;20033;-76
2022/11/11 14:47:59;;;;;;;21.58;10.98;;;10.90;99.90;;;;;;20983900;28;20462;-77
2022/11/11 14:58:25;;;;;;;19.50;10.65;;;10.70;99.90;;;;;;21025099;28;20036;-77
2022/11/11 15:08:52;;;;;;;21.40;9.70;;;10.50;99.90;;;;;;20941961;28;20052;-77
2022/11/11 15:19:39;;;;;;;22.02;11.05;;;10.20;99.90;;;;;;20898503;28;20049;-77
2022/11/11 15:30:05;;;;;;;70.95;25.80;;;10.00;99.90;;;;;;20913547;28;20116;-76
2022/11/11 15:40:30;;;;;;;21.15;11.13;;;9.90;99.90;;;;;;20980042;28;20036;-77
2022/11/11 15:50:50;;;;;;;23.27;11.40;;;9.80;99.90;;;;;;20981020;28;20040;-77
2022/11/11 16:01:11;;;;;;;24.63;12.73;;;9.50;99.90;;;;;;20994789;28;20119;-77
2022/11/11 16:11:30;;;;;;;28.30;12.47;;;9.40;99.90;;;;;;20995417;28;20033;-77
2022/11/11 16:21:55;;;;;;;24.70;12.00;;;9.40;99.90;;;;;;20993158;28;20026;-77
2022/11/11 16:32:24;;;;;;;62.58;24.85;;;9.40;99.90;;;;;;20992605;28;20048;-77
2022/11/11 16:42:43;;;;;;;27.50;13.73;;;9.30;99.90;;;;;;20992589;28;20036;-76
2022/11/11 16:53:06;;;;;;;25.92;13.60;;;9.20;99.90;;;;;;20991246;28;20032;-77
2022/11/11 17:03:26;;;;;;;25.67;12.40;;;9.10;99.90;;;;;;21035318;28;20068;-78
2022/11/11 17:13:45;;;;;;;34.72;14.07;;;9.10;99.90;;;;;;21002392;28;20044;-78
2022/11/11 17:24:04;;;;;;;25.17;12.15;;;9.20;99.90;;;;;;20977804;28;20533;-78
2022/11/11 17:34:23;;;;;;;23.70;11.75;;;9.20;99.90;;;;;;20951160;28;20037;-77
2022/11/11 17:44:42;;;;;;;30.77;13.98;;;9.10;99.90;;;;;;20929494;28;20033;-78
2022/11/11 17:55:02;;;;;;;31.83;14.95;;;9.00;99.90;;;;;;20965454;28;20048;-77
2022/11/11 18:05:21;;;;;;;31.25;14.40;;;9.00;99.90;;;;;;20950367;28;20048;-77
2022/11/11 18:15:41;;;;;;;28.00;13.18;;;8.80;99.90;;;;;;20969181;28;20485;-77
2022/11/11 18:26:01;;;;;;;30.80;14.27;;;8.80;99.90;;;;;;20964510;28;20531;-78
2022/11/11 18:36:21;;;;;;;29.63;13.07;;;8.80;99.90;;;;;;20961863;28;20435;-77
2022/11/11 18:46:40;;;;;;;33.05;13.40;;;8.80;99.90;;;;;;20978736;28;20044;-76
2022/11/11 18:57:00;;;;;;;30.45;11.68;;;9.30;99.90;;;;;;20989043;28;20506;-77
2022/11/11 19:07:19;;;;;;;22.42;12.13;;;9.40;99.90;;;;;;21037789;28;20044;-76
2022/11/11 19:17:38;;;;;;;26.77;12.40;;;9.40;99.90;;;;;;20997977;28;20044;-77
2022/11/11 19:27:58;;;;;;;26.13;12.38;;;9.00;99.90;;;;;;20996782;28;20036;-76
2022/11/11 19:38:17;;;;;;;22.75;11.38;;;8.90;99.90;;;;;;20996054;28;20032;-77
2022/11/11 19:48:36;;;;;;;21.88;11.40;;;8.80;99.90;;;;;;20994586;28;20040;-78
2022/11/11 19:58:56;;;;;;;25.27;12.20;;;8.70;99.90;;;;;;21027268;28;20494;-77
2022/11/11 20:09:15;;;;;;;22.92;11.52;;;8.70;99.90;;;;;;21004458;28;20040;-77
2022/11/11 20:19:34;;;;;;;25.02;10.82;;;8.50;99.90;;;;;;20994272;28;20036;-77
2022/11/11 20:29:53;;;;;;;23.80;10.38;;;8.40;99.90;;;;;;20995393;28;20475;-76
2022/11/11 20:40:12;;;;;;;21.40;9.88;;;8.30;99.90;;;;;;20973732;28;20048;-77
2022/11/11 20:50:31;;;;;;;22.80;10.55;;;8.20;99.90;;;;;;20956914;28;20119;-77
2022/11/11 21:00:51;;;;;;;26.88;11.30;;;8.20;99.90;;;;;;20954317;28;20058;-77
2022/11/11 21:11:13;;;;;;;21.25;9.93;;;8.10;99.90;;;;;;20984993;28;20115;-76
2022/11/11 21:21:33;;;;;;;22.15;9.20;;;8.10;99.90;;;;;;20970883;28;20531;-77
2022/11/11 21:31:52;;;;;;;22.10;9.32;;;8.00;99.90;;;;;;20921795;28;20127;-77
2022/11/11 21:42:11;;;;;;;16.90;8.32;;;7.90;99.90;;;;;;20995541;28;20040;-78
2022/11/11 21:52:31;;;;;;;19.05;9.63;;;7.80;99.90;;;;;;20996985;28;20036;-76
2022/11/11 22:02:50;;;;;;;24.05;9.73;;;7.80;99.90;;;;;;21023659;28;20036;-75
2022/11/11 22:13:09;;;;;;;24.42;10.70;;;7.70;99.90;;;;;;21002180;28;20406;-76
2022/11/11 22:23:28;;;;;;;23.83;10.90;;;7.60;99.90;;;;;;21001059;28;20033;-78
2022/11/11 22:33:55;;;;;;;26.20;11.20;;;7.70;99.90;;;;;;21003521;28;20040;-77
2022/11/11 22:44:15;;;;;;;26.67;11.35;;;7.70;99.90;;;;;;21083622;28;20028;-77
2022/11/11 22:54:34;;;;;;;23.30;10.85;;;7.60;99.90;;;;;;21010385;28;20144;-77
2022/11/11 23:04:53;;;;;;;21.67;10.02;;;7.50;99.90;;;;;;21041739;28;20044;-77
2022/11/11 23:15:12;;;;;;;19.95;8.50;;;7.50;99.90;;;;;;20998107;28;20048;-77
2022/11/11 23:25:33;;;;;;;23.48;11.25;;;7.30;99.90;;;;;;20995766;28;20040;-76
2022/11/11 23:35:52;;;;;;;24.42;11.35;;;7.30;99.90;;;;;;21040988;28;20456;-77
2022/11/11 23:46:11;;;;;;;27.13;10.02;;;7.30;99.90;;;;;;21034475;28;20049;-77
2022/11/11 23:56:33;;;;;;;26.15;11.05;;;7.20;99.90;;;;;;20993550;28;20059;-77
